Time;durP1;ratioP1;P1;durP2;ratioP2;P2;SDS_P1;SDS_P2;PMS_P1;PMS_P2;Temp;Humidity;BMP_temperature;BMP_pressure;BME280_temperature;BME280_humidity;BME280_pressure;Samples;Min_cycle;Max_cycle;Signal;HPM_P1;HPM_P2
2023/06/03 00:02:10;;;;;;;1.10;0.88;;;10.80;56.40;;;;;;5037579;28;20048;-64
2023/06/03 00:04:41;;;;;;;1.35;0.85;;;10.70;56.70;;;;;;5043123;28;20040;-64
2023/06/03 00:07:07;;;;;;;2.17;1.15;;;10.70;57.20;;;;;;5025778;28;20041;-65
2023/06/03 00:09:33;;;;;;;5.38;2.08;;;10.60;57.50;;;;;;5040186;28;20108;-64
2023/06/03 00:11:59;;;;;;;2.03;1.05;;;10.50;57.90;;;;;;5039380;28;20094;-66
2023/06/03 00:14:24;;;;;;;1.30;1.10;;;10.40;58.30;;;;;;5042597;28;20116;-64
2023/06/03 00:16:50;;;;;;;3.30;1.17;;;10.30;58.50;;;;;;5041306;28;20049;-64
2023/06/03 00:19:17;;;;;;;1.42;0.90;;;10.20;58.70;;;;;;5049638;28;20083;-64
2023/06/03 00:21:49;;;;;;;1.00;0.90;;;10.10;59.00;;;;;;5038359;28;20457;-63
2023/06/03 00:24:15;;;;;;;1.58;0.95;;;10.10;59.00;;;;;;5039530;28;20041;-64
2023/06/03 00:26:41;;;;;;;1.50;1.20;;;10.00;59.20;;;;;;5049454;28;20045;-64
2023/06/03 00:29:07;;;;;;;3.22;1.10;;;10.00;59.30;;;;;;5029116;28;20456;-64
2023/06/03 00:31:33;;;;;;;1.75;1.00;;;10.00;59.40;;;;;;5047946;28;20342;-64
2023/06/03 00:33:58;;;;;;;2.80;1.15;;;9.90;59.40;;;;;;5045027;28;20103;-63
2023/06/03 00:36:24;;;;;;;3.97;1.20;;;9.90;59.90;;;;;;5026914;28;20036;-66
2023/06/03 00:38:49;;;;;;;1.88;1.20;;;9.80;60.00;;;;;;5037005;28;20037;-64
2023/06/03 00:41:15;;;;;;;1.50;1.05;;;9.80;60.40;;;;;;5035553;28;20484;-64
2023/06/03 00:43:40;;;;;;;2.35;1.20;;;9.70;60.60;;;;;;5033655;28;20458;-64
2023/06/03 00:46:09;;;;;;;2.40;1.02;;;9.60;60.70;;;;;;5046802;28;20052;-65
2023/06/03 00:48:35;;;;;;;0.95;0.80;;;9.60;60.90;;;;;;5038918;28;20129;-63
2023/06/03 00:51:01;;;;;;;2.25;1.23;;;9.50;61.10;;;;;;5045113;28;20045;-64
2023/06/03 00:53:26;;;;;;;2.00;1.08;;;9.50;61.30;;;;;;5034424;28;20342;-67
2023/06/03 00:55:52;;;;;;;3.20;1.45;;;9.40;61.50;;;;;;5041544;28;20029;-65
2023/06/03 00:58:18;;;;;;;3.85;1.10;;;9.30;61.40;;;;;;5022321;28;20496;-63
2023/06/03 01:00:43;;;;;;;2.92;1.30;;;9.30;61.80;;;;;;5035604;28;20041;-64
2023/06/03 01:03:13;;;;;;;3.42;1.45;;;9.20;62.10;;;;;;5036971;28;20385;-65
2023/06/03 01:05:45;;;;;;;2.13;1.20;;;9.10;62.00;;;;;;5038421;28;20045;-65
2023/06/03 01:08:35;;;;;;;2.15;1.23;;;9.10;62.30;;;;;;5040904;28;20040;-66
2023/06/03 01:11:50;;;;;;;3.17;1.65;;;9.00;62.90;;;;;;5032204;28;20128;-66
2023/06/03 01:14:22;;;;;;;2.55;0.90;;;9.00;62.60;;;;;;5008229;28;20129;-65
2023/06/03 01:16:50;;;;;;;2.10;1.02;;;8.90;62.30;;;;;;5017470;28;20037;-64
2023/06/03 01:19:49;;;;;;;2.17;1.30;;;9.00;62.60;;;;;;5028277;28;20059;-65
2023/06/03 01:22:17;;;;;;;4.22;1.52;;;9.00;63.30;;;;;;5038444;28;20159;-64
2023/06/03 01:24:50;;;;;;;1.70;1.20;;;8.90;62.50;;;;;;5035135;28;20029;-64
2023/06/03 01:27:16;;;;;;;3.40;1.17;;;8.90;62.50;;;;;;5041031;28;20056;-65
2023/06/03 01:29:43;;;;;;;3.60;1.45;;;8.90;62.50;;;;;;5045586;28;20033;-64
2023/06/03 01:32:14;;;;;;;5.38;1.42;;;8.90;62.40;;;;;;5027710;28;20061;-64
2023/06/03 01:34:41;;;;;;;2.17;1.00;;;8.90;62.90;;;;;;5031853;28;20036;-63
2023/06/03 01:37:11;;;;;;;2.33;1.20;;;8.80;62.20;;;;;;5039006;28;20041;-64
2023/06/03 01:39:40;;;;;;;1.05;0.80;;;8.80;62.30;;;;;;5044734;28;20043;-65
2023/06/03 01:42:11;;;;;;;2.78;1.00;;;8.80;62.20;;;;;;5044256;28;20445;-64
2023/06/03 01:44:37;;;;;;;2.35;0.95;;;8.90;62.40;;;;;;5037861;28;20041;-64
2023/06/03 01:47:04;;;;;;;1.90;1.20;;;8.90;62.00;;;;;;5047206;28;20068;-64
2023/06/03 01:49:33;;;;;;;1.98;1.17;;;8.90;61.90;;;;;;5035282;28;20041;-64
2023/06/03 01:51:59;;;;;;;3.40;1.33;;;8.90;61.90;;;;;;5032399;28;20052;-66
2023/06/03 01:54:25;;;;;;;2.10;1.30;;;8.90;62.00;;;;;;5027148;28;20095;-65
2023/06/03 01:56:55;;;;;;;2.50;1.00;;;8.90;61.80;;;;;;5017069;28;20121;-65
2023/06/03 01:59:25;;;;;;;2.15;1.02;;;8.90;61.90;;;;;;5037978;28;20053;-63
2023/06/03 02:01:56;;;;;;;2.45;1.15;;;8.80;61.90;;;;;;5040508;28;20117;-64
2023/06/03 02:04:22;;;;;;;2.30;1.20;;;8.80;61.90;;;;;;5044285;28;20040;-63
2023/06/03 02:06:52;;;;;;;1.95;1.38;;;8.80;62.00;;;;;;5044084;28;20049;-63
2023/06/03 02:09:21;;;;;;;2.47;1.80;;;8.80;62.20;;;;;;5042056;28;20067;-65
2023/06/03 02:11:47;;;;;;;4.32;1.38;;;8.70;62.20;;;;;;5046625;28;20441;-65
2023/06/03 02:14:13;;;;;;;2.35;1.10;;;8.70;62.40;;;;;;5020691;28;20429;-63
2023/06/03 02:16:40;;;;;;;3.03;1.40;;;8.60;62.40;;;;;;5049646;28;20097;-64
2023/06/03 02:19:19;;;;;;;2.47;0.98;;;8.60;62.50;;;;;;5043160;28;20400;-64
2023/06/03 02:21:45;;;;;;;1.88;1.20;;;8.60;62.60;;;;;;5029919;28;20346;-64
2023/06/03 02:24:11;;;;;;;2.03;1.08;;;8.60;62.40;;;;;;5036291;28;20034;-64
2023/06/03 02:26:39;;;;;;;2.92;1.23;;;8.50;62.40;;;;;;5040672;28;20030;-64
2023/06/03 02:29:06;;;;;;;1.70;1.05;;;8.50;62.50;;;;;;5045345;28;20068;-63
2023/06/03 02:31:32;;;;;;;2.40;1.20;;;8.50;62.60;;;;;;5028592;28;20037;-64
2023/06/03 02:33:58;;;;;;;3.15;1.00;;;8.50;62.70;;;;;;5049400;28;20614;-64
2023/06/03 02:36:24;;;;;;;2.08;1.10;;;8.40;62.80;;;;;;5035814;28;20500;-64
2023/06/03 02:38:50;;;;;;;3.30;1.30;;;8.40;62.80;;;;;;5032477;28;20052;-65
2023/06/03 02:41:15;;;;;;;4.20;1.58;;;8.40;62.90;;;;;;5045421;28;20041;-63
2023/06/03 02:43:41;;;;;;;1.40;1.10;;;8.40;62.90;;;;;;5043193;28;20041;-64
2023/06/03 02:46:07;;;;;;;2.42;0.98;;;8.40;62.90;;;;;;5041394;28;20493;-64
2023/06/03 02:48:33;;;;;;;4.72;1.35;;;8.40;63.00;;;;;;5044869;28;20041;-64
2023/06/03 02:50:59;;;;;;;2.60;0.98;;;8.30;63.10;;;;;;5036929;28;20045;-64
2023/06/03 02:53:25;;;;;;;2.22;1.10;;;8.30;63.20;;;;;;5037859;28;20068;-64
2023/06/03 02:55:50;;;;;;;3.90;1.33;;;8.30;63.40;;;;;;5036185;28;20127;-65
2023/06/03 02:58:16;;;;;;;2.10;1.45;;;8.20;63.40;;;;;;5038943;28;20041;-65
2023/06/03 03:00:42;;;;;;;2.47;1.20;;;8.20;63.40;;;;;;5042853;28;20052;-65
2023/06/03 03:03:09;;;;;;;2.00;1.30;;;8.20;63.50;;;;;;5058604;28;20048;-66
2023/06/03 03:05:35;;;;;;;4.15;2.03;;;8.20;63.50;;;;;;5044474;28;20048;-65
2023/06/03 03:08:01;;;;;;;3.88;1.48;;;8.20;63.50;;;;;;5025351;28;20041;-64
2023/06/03 03:10:27;;;;;;;3.05;1.27;;;8.20;63.60;;;;;;5046477;28;20060;-64
2023/06/03 03:12:53;;;;;;;2.58;1.48;;;8.10;63.50;;;;;;5037513;28;20365;-64
2023/06/03 03:15:19;;;;;;;4.10;1.40;;;8.10;63.70;;;;;;5043433;28;20048;-64
2023/06/03 03:17:45;;;;;;;4.82;1.35;;;8.10;63.80;;;;;;5037011;28;20048;-64
2023/06/03 03:20:12;;;;;;;2.40;1.58;;;8.00;63.80;;;;;;5035122;28;20048;-64
2023/06/03 03:22:44;;;;;;;2.08;1.63;;;8.00;63.90;;;;;;5038206;28;20060;-64
2023/06/03 03:25:12;;;;;;;2.45;1.70;;;8.00;63.90;;;;;;5047993;28;20067;-64
2023/06/03 03:27:38;;;;;;;3.92;1.42;;;8.00;64.00;;;;;;5040421;28;20114;-64
2023/06/03 03:30:05;;;;;;;3.35;1.35;;;8.00;64.10;;;;;;5041720;28;20068;-63
2023/06/03 03:32:31;;;;;;;4.97;1.50;;;7.90;64.50;;;;;;5022466;28;20502;-64
2023/06/03 03:35:18;;;;;;;3.78;1.20;;;7.90;64.40;;;;;;5044615;28;20144;-64
2023/06/03 03:37:44;;;;;;;3.45;1.48;;;8.00;65.10;;;;;;5019729;28;20049;-66
2023/06/03 03:40:21;;;;;;;2.88;1.13;;;7.90;65.30;;;;;;5037759;28;20056;-63
2023/06/03 03:42:51;;;;;;;3.17;1.20;;;7.90;64.80;;;;;;5014037;28;20076;-64
2023/06/03 03:45:19;;;;;;;2.40;1.40;;;7.90;64.80;;;;;;5040314;28;20186;-64
2023/06/03 03:47:51;;;;;;;3.42;1.55;;;7.90;64.80;;;;;;5042940;28;20045;-66
2023/06/03 03:50:41;;;;;;;4.03;1.70;;;7.90;65.00;;;;;;5026088;28;20037;-63
2023/06/03 03:53:12;;;;;;;3.78;1.30;;;7.90;65.20;;;;;;5032035;28;20041;-64
2023/06/03 03:55:42;;;;;;;3.90;1.48;;;7.90;65.10;;;;;;5041498;28;20035;-64
2023/06/03 03:58:37;;;;;;;4.85;1.50;;;7.90;65.20;;;;;;5039400;28;20075;-63
2023/06/03 04:01:17;;;;;;;3.15;1.50;;;7.80;65.60;;;;;;5030440;28;20357;-65
2023/06/03 04:03:52;;;;;;;1.40;1.15;;;7.80;65.70;;;;;;5057520;28;20077;-64
2023/06/03 04:06:36;;;;;;;2.53;1.48;;;7.70;65.40;;;;;;5034200;28;20040;-65
2023/06/03 04:09:06;;;;;;;2.97;1.40;;;7.80;66.10;;;;;;5041282;28;20064;-63
2023/06/03 04:11:42;;;;;;;2.78;1.40;;;7.80;65.70;;;;;;5040144;28;20044;-64
2023/06/03 04:14:16;;;;;;;1.88;1.35;;;7.80;65.90;;;;;;5037877;28;20057;-65
2023/06/03 04:16:58;;;;;;;1.88;1.30;;;7.90;65.90;;;;;;5038692;28;20045;-64
2023/06/03 04:19:30;;;;;;;4.20;1.42;;;7.90;66.60;;;;;;5038703;28;20029;-65
2023/06/03 04:21:57;;;;;;;3.72;1.40;;;7.90;66.00;;;;;;5033781;28;20414;-64
2023/06/03 04:24:24;;;;;;;3.78;1.40;;;7.90;66.10;;;;;;5040902;28;20029;-64
2023/06/03 04:26:51;;;;;;;5.18;1.60;;;7.90;66.20;;;;;;5035809;28;20186;-64
2023/06/03 04:29:17;;;;;;;2.55;1.40;;;7.90;66.20;;;;;;5042008;28;22681;-64
2023/06/03 04:31:42;;;;;;;3.30;1.65;;;8.00;66.20;;;;;;5039333;28;20053;-64
2023/06/03 04:34:08;;;;;;;3.78;1.60;;;8.10;66.40;;;;;;5034468;28;20392;-64
2023/06/03 04:36:34;;;;;;;4.80;1.67;;;8.10;66.30;;;;;;5041748;28;20041;-65
2023/06/03 04:38:59;;;;;;;3.65;1.63;;;8.20;66.40;;;;;;5033282;28;20099;-64
2023/06/03 04:41:27;;;;;;;3.10;1.52;;;8.20;66.50;;;;;;5031914;28;20368;-65
2023/06/03 04:43:54;;;;;;;4.78;1.80;;;8.30;66.60;;;;;;5034210;28;20128;-67
2023/06/03 04:46:21;;;;;;;3.53;1.77;;;8.50;66.60;;;;;;5036583;28;20132;-64
2023/06/03 04:48:48;;;;;;;3.10;1.58;;;8.50;66.70;;;;;;5035417;28;20901;-64
2023/06/03 04:51:13;;;;;;;2.95;1.80;;;8.70;66.70;;;;;;5036957;28;20029;-63
2023/06/03 04:53:42;;;;;;;3.75;1.42;;;8.80;66.50;;;;;;5037360;28;20087;-64
2023/06/03 04:56:08;;;;;;;3.58;1.45;;;8.90;66.30;;;;;;5044996;28;20036;-64
2023/06/03 04:58:35;;;;;;;4.47;1.60;;;9.10;66.20;;;;;;5013765;28;20383;-64
2023/06/03 05:01:04;;;;;;;2.88;1.40;;;9.20;66.10;;;;;;5018515;28;20431;-65
2023/06/03 05:03:30;;;;;;;3.05;1.45;;;9.40;66.00;;;;;;5041414;28;20068;-64
2023/06/03 05:05:56;;;;;;;4.43;1.60;;;9.60;65.80;;;;;;5040530;28;20075;-69
2023/06/03 05:08:22;;;;;;;3.60;1.73;;;9.80;65.70;;;;;;5030678;28;20103;-64
2023/06/03 05:10:48;;;;;;;2.20;1.50;;;10.00;65.60;;;;;;5042155;28;20486;-64
2023/06/03 05:13:13;;;;;;;3.25;1.50;;;10.20;65.00;;;;;;5021037;28;20045;-64
2023/06/03 05:15:39;;;;;;;2.88;1.40;;;10.50;64.60;;;;;;5038858;28;20037;-65
2023/06/03 05:18:05;;;;;;;3.38;1.70;;;10.70;64.20;;;;;;5038894;28;20044;-65
2023/06/03 05:20:31;;;;;;;3.08;1.40;;;10.90;63.80;;;;;;5039253;28;20037;-64
2023/06/03 05:22:57;;;;;;;3.10;1.33;;;11.20;63.50;;;;;;5041802;28;20051;-65
2023/06/03 05:25:23;;;;;;;2.33;1.30;;;11.30;63.40;;;;;;5016102;28;20033;-65
2023/06/03 05:27:48;;;;;;;2.28;1.42;;;11.50;63.20;;;;;;5039057;28;20131;-65
2023/06/03 05:30:14;;;;;;;6.38;1.30;;;11.70;62.80;;;;;;5037460;28;20039;-64
2023/06/03 05:32:41;;;;;;;2.28;1.35;;;11.90;62.60;;;;;;5026794;28;20041;-65
2023/06/03 05:35:08;;;;;;;3.28;1.75;;;12.00;62.30;;;;;;5039946;28;20485;-66
2023/06/03 05:37:33;;;;;;;2.75;1.20;;;12.20;61.90;;;;;;5021313;28;20049;-65
2023/06/03 05:39:59;;;;;;;3.38;1.00;;;12.40;61.50;;;;;;5044412;28;20037;-65
2023/06/03 05:42:24;;;;;;;1.67;1.05;;;12.60;60.30;;;;;;5044160;28;20040;-65
2023/06/03 05:44:50;;;;;;;2.85;1.40;;;12.80;59.70;;;;;;5035885;28;20044;-65
2023/06/03 05:47:15;;;;;;;2.65;0.90;;;13.00;58.80;;;;;;5039018;28;20068;-65
2023/06/03 05:49:42;;;;;;;2.72;1.08;;;13.20;58.50;;;;;;5033664;28;20046;-64
2023/06/03 05:52:07;;;;;;;2.00;1.17;;;13.40;57.60;;;;;;5028725;28;20037;-65
2023/06/03 05:54:33;;;;;;;2.63;1.30;;;13.60;56.60;;;;;;5034284;28;20075;-65
2023/06/03 05:56:59;;;;;;;2.35;1.10;;;13.90;56.00;;;;;;5028397;28;20048;-65
2023/06/03 05:59:24;;;;;;;1.75;1.10;;;14.20;55.20;;;;;;5012508;28;20033;-67
2023/06/03 06:01:50;;;;;;;1.60;1.10;;;14.30;54.70;;;;;;5032587;28;20044;-66
2023/06/03 06:04:16;;;;;;;1.60;1.10;;;14.30;54.20;;;;;;5032084;28;20033;-65
2023/06/03 06:06:41;;;;;;;4.45;1.30;;;14.20;53.60;;;;;;5034128;28;20041;-65
2023/06/03 06:09:07;;;;;;;2.70;0.90;;;14.20;53.50;;;;;;5031759;28;20045;-66
2023/06/03 06:11:33;;;;;;;1.42;1.10;;;14.10;53.50;;;;;;5030059;28;20647;-66
2023/06/03 06:13:59;;;;;;;2.75;1.30;;;14.20;53.60;;;;;;5041331;28;20227;-65
2023/06/03 06:16:24;;;;;;;2.83;1.17;;;14.20;53.60;;;;;;5036279;28;20159;-65
2023/06/03 06:18:50;;;;;;;2.42;1.10;;;14.20;53.10;;;;;;5015674;28;20068;-67
2023/06/03 06:21:16;;;;;;;4.35;1.10;;;14.20;52.50;;;;;;5027718;28;20037;-64
2023/06/03 06:23:43;;;;;;;1.48;1.20;;;14.30;52.10;;;;;;5032740;28;20395;-66
2023/06/03 06:26:08;;;;;;;2.63;1.13;;;14.40;51.70;;;;;;5043828;28;20163;-66
2023/06/03 06:28:34;;;;;;;4.07;1.20;;;14.40;51.90;;;;;;5034261;28;20147;-64
2023/06/03 06:31:04;;;;;;;2.08;1.15;;;14.50;51.00;;;;;;5043013;28;20029;-65
2023/06/03 06:33:33;;;;;;;4.38;1.33;;;14.50;49.80;;;;;;5046972;28;20037;-65
2023/06/03 06:36:03;;;;;;;8.85;1.38;;;14.60;50.10;;;;;;5044055;28;20077;-66
2023/06/03 06:38:28;;;;;;;1.87;1.20;;;14.70;50.50;;;;;;5035590;28;20131;-65
2023/06/03 06:40:54;;;;;;;2.83;1.15;;;14.90;49.60;;;;;;5032900;28;20111;-65
2023/06/03 06:43:25;;;;;;;2.05;0.80;;;14.90;49.60;;;;;;5036216;28;20429;-65
2023/06/03 06:45:54;;;;;;;4.85;1.30;;;14.90;49.50;;;;;;5017524;28;20036;-65
2023/06/03 06:48:20;;;;;;;2.75;1.17;;;15.00;49.30;;;;;;5032083;28;20103;-66
2023/06/03 06:50:53;;;;;;;1.27;0.95;;;15.00;49.10;;;;;;5035765;28;20072;-65
2023/06/03 06:53:20;;;;;;;2.55;1.30;;;15.00;48.80;;;;;;5033332;28;20393;-65
2023/06/03 06:55:50;;;;;;;2.35;1.00;;;15.10;49.00;;;;;;5041131;28;20045;-66
2023/06/03 06:58:17;;;;;;;3.58;1.15;;;15.20;48.70;;;;;;5048786;28;20051;-64
2023/06/03 07:00:44;;;;;;;3.75;0.82;;;15.40;48.80;;;;;;5046700;28;20114;-66
2023/06/03 07:03:11;;;;;;;1.40;0.90;;;15.50;48.00;;;;;;5031708;28;20095;-65
2023/06/03 07:05:37;;;;;;;3.08;0.95;;;15.90;47.40;;;;;;5045232;28;20036;-66
2023/06/03 07:08:03;;;;;;;1.20;0.82;;;16.00;47.00;;;;;;5045456;28;20121;-64
2023/06/03 07:10:28;;;;;;;2.55;0.90;;;15.90;46.60;;;;;;5081009;28;20144;-64
2023/06/03 07:12:55;;;;;;;3.25;0.80;;;15.70;46.40;;;;;;5028710;28;20044;-65
2023/06/03 07:15:22;;;;;;;1.83;0.70;;;15.60;46.20;;;;;;5051689;28;20059;-64
2023/06/03 07:17:56;;;;;;;2.50;0.80;;;15.80;46.50;;;;;;5038387;28;20484;-65
2023/06/03 07:20:28;;;;;;;4.85;1.05;;;16.20;46.50;;;;;;5030597;28;20049;-66
2023/06/03 07:22:54;;;;;;;2.75;0.85;;;16.70;46.10;;;;;;5029984;28;20468;-65
2023/06/03 07:25:43;;;;;;;2.10;0.88;;;17.20;45.90;;;;;;5045426;28;20094;-67
2023/06/03 07:28:37;;;;;;;2.40;0.70;;;17.80;42.50;;;;;;5038222;28;20045;-66
2023/06/03 07:31:06;;;;;;;2.45;0.77;;;18.00;43.20;;;;;;5022583;28;20081;-66
2023/06/03 07:33:49;;;;;;;1.20;0.77;;;18.30;41.90;;;;;;5040350;28;20047;-66
2023/06/03 07:36:15;;;;;;;1.58;0.77;;;18.60;39.60;;;;;;5047918;28;20055;-64
2023/06/03 07:38:56;;;;;;;1.77;0.80;;;18.70;39.20;;;;;;5047016;28;20048;-67
2023/06/03 07:41:40;;;;;;;2.67;1.02;;;19.00;35.20;;;;;;5042715;28;20079;-67
2023/06/03 07:44:08;;;;;;;1.73;0.60;;;19.30;35.50;;;;;;5046641;28;20156;-67
2023/06/03 07:46:45;;;;;;;1.88;0.65;;;19.40;37.90;;;;;;5047796;28;20130;-66
2023/06/03 07:49:15;;;;;;;1.50;0.70;;;19.50;36.00;;;;;;5047635;28;20052;-68
2023/06/03 07:51:49;;;;;;;3.33;0.60;;;19.80;36.60;;;;;;5039638;28;20040;-66
2023/06/03 07:54:15;;;;;;;1.40;0.60;;;20.10;34.90;;;;;;5044213;28;20056;-65
2023/06/03 07:56:41;;;;;;;1.92;0.65;;;20.30;35.60;;;;;;5044112;28;20037;-72
2023/06/03 07:59:12;;;;;;;1.48;0.60;;;20.30;34.90;;;;;;5047528;28;20040;-66
2023/06/03 08:01:38;;;;;;;1.30;0.50;;;20.20;32.70;;;;;;5043416;28;20073;-67
2023/06/03 08:04:20;;;;;;;2.13;0.60;;;20.40;33.60;;;;;;5045866;28;20044;-66
2023/06/03 08:06:46;;;;;;;1.60;0.57;;;20.50;30.90;;;;;;5025631;28;20469;-66
2023/06/03 08:09:23;;;;;;;1.05;0.63;;;20.70;33.30;;;;;;5037043;28;20106;-68
2023/06/03 08:11:49;;;;;;;0.95;0.52;;;21.20;31.20;;;;;;5050315;28;20111;-68
2023/06/03 08:14:14;;;;;;;1.08;0.80;;;21.30;32.60;;;;;;5045320;28;20064;-68
2023/06/03 08:16:40;;;;;;;4.50;0.80;;;21.30;31.90;;;;;;5048564;28;20425;-67
2023/06/03 08:19:07;;;;;;;1.00;0.60;;;21.30;32.00;;;;;;5040284;28;20554;-68
2023/06/03 08:21:33;;;;;;;0.65;0.50;;;21.20;31.10;;;;;;5030525;28;20633;-69
2023/06/03 08:23:59;;;;;;;0.90;0.70;;;21.70;31.20;;;;;;5044748;28;20079;-66
2023/06/03 08:26:26;;;;;;;0.80;0.63;;;22.00;30.40;;;;;;5047181;28;20112;-67
2023/06/03 08:28:52;;;;;;;2.17;0.80;;;22.00;29.60;;;;;;5043801;28;20037;-68
2023/06/03 08:31:18;;;;;;;2.42;0.70;;;22.20;29.30;;;;;;5047643;28;20050;-66
2023/06/03 08:33:43;;;;;;;1.15;0.40;;;22.50;29.40;;;;;;5045962;28;20106;-69
2023/06/03 08:36:09;;;;;;;1.20;0.50;;;22.90;28.40;;;;;;5045760;28;20408;-68
2023/06/03 08:38:35;;;;;;;1.55;0.50;;;22.90;27.60;;;;;;5045046;28;20094;-68
2023/06/03 08:41:01;;;;;;;1.83;0.77;;;23.20;27.20;;;;;;5047827;28;20041;-68
2023/06/03 08:43:48;;;;;;;2.80;0.60;;;23.70;27.10;;;;;;5043691;28;20041;-68
2023/06/03 08:46:41;;;;;;;0.90;0.50;;;24.10;26.20;;;;;;5048709;28;20065;-66
2023/06/03 08:49:11;;;;;;;1.15;0.68;;;24.10;23.50;;;;;;5045570;28;20460;-67
2023/06/03 08:51:43;;;;;;;0.87;0.60;;;24.00;24.80;;;;;;5044964;28;20116;-67
2023/06/03 08:54:17;;;;;;;1.10;0.50;;;24.00;24.40;;;;;;5044128;28;20045;-65
2023/06/03 08:56:48;;;;;;;2.80;0.98;;;24.00;23.90;;;;;;5048155;28;20060;-68
2023/06/03 08:59:19;;;;;;;1.60;0.60;;;23.30;24.30;;;;;;5025639;28;20041;-64
2023/06/03 09:01:46;;;;;;;3.00;0.75;;;22.80;24.80;;;;;;5046302;28;20056;-68
2023/06/03 09:04:13;;;;;;;2.75;0.80;;;22.70;25.50;;;;;;5028346;28;20068;-67
2023/06/03 09:06:45;;;;;;;1.70;0.40;;;22.30;25.70;;;;;;5046320;28;20040;-65
2023/06/03 09:09:12;;;;;;;0.70;0.50;;;21.70;25.90;;;;;;5045895;28;20097;-66
2023/06/03 09:11:38;;;;;;;1.20;0.55;;;21.20;26.20;;;;;;5045811;28;20123;-67
2023/06/03 09:14:04;;;;;;;3.30;0.63;;;20.80;26.70;;;;;;5028377;28;20060;-66
2023/06/03 09:16:32;;;;;;;1.40;0.80;;;20.30;27.20;;;;;;5042164;28;20406;-66
2023/06/03 09:18:58;;;;;;;1.95;0.70;;;20.50;27.60;;;;;;5049145;28;20044;-68
2023/06/03 09:21:24;;;;;;;4.93;1.15;;;21.20;27.20;;;;;;5037102;28;20529;-68
2023/06/03 09:23:51;;;;;;;1.38;0.70;;;21.90;26.50;;;;;;5028101;28;20037;-67
2023/06/03 09:26:17;;;;;;;0.80;0.57;;;22.30;25.80;;;;;;5046798;28;20045;-67
2023/06/03 09:28:44;;;;;;;1.42;0.65;;;22.60;26.00;;;;;;5047929;28;20044;-65
2023/06/03 09:31:10;;;;;;;0.80;0.50;;;23.50;25.60;;;;;;5048438;28;20422;-68
2023/06/03 09:33:36;;;;;;;0.77;0.40;;;23.70;25.40;;;;;;5047568;28;20086;-67
2023/06/03 09:36:12;;;;;;;2.40;0.70;;;24.60;25.10;;;;;;5045665;28;20119;-68
2023/06/03 09:38:55;;;;;;;0.88;0.50;;;24.80;24.10;;;;;;5049085;28;20045;-67
2023/06/03 09:41:27;;;;;;;1.80;0.80;;;25.30;23.00;;;;;;5047602;28;20109;-67
2023/06/03 09:43:54;;;;;;;1.27;0.68;;;25.70;23.20;;;;;;5047129;28;20070;-68
2023/06/03 09:46:19;;;;;;;1.85;0.60;;;25.80;23.10;;;;;;5047428;28;20072;-68
2023/06/03 09:48:45;;;;;;;0.70;0.50;;;25.20;23.00;;;;;;5046952;28;20506;-66
2023/06/03 09:51:11;;;;;;;1.17;0.75;;;24.70;23.40;;;;;;5047037;28;20041;-68
2023/06/03 09:53:37;;;;;;;1.63;0.65;;;25.00;23.50;;;;;;5047119;28;20040;-67
2023/06/03 09:56:25;;;;;;;2.08;0.70;;;25.30;23.00;;;;;;5047446;28;20097;-68
2023/06/03 09:58:53;;;;;;;1.48;0.60;;;26.00;22.10;;;;;;5047809;28;20147;-67
2023/06/03 10:01:31;;;;;;;3.78;0.80;;;26.80;22.20;;;;;;5048505;28;20045;-68
2023/06/03 10:03:58;;;;;;;5.22;0.70;;;27.50;21.40;;;;;;5047461;28;20462;-68
2023/06/03 10:06:24;;;;;;;1.65;0.60;;;28.30;21.40;;;;;;5044209;28;20481;-68
2023/06/03 10:08:50;;;;;;;1.63;0.50;;;27.80;21.10;;;;;;5045544;28;20086;-66
2023/06/03 10:11:15;;;;;;;1.40;0.57;;;28.10;20.80;;;;;;5046371;28;20118;-68
2023/06/03 10:13:41;;;;;;;3.03;0.73;;;28.00;21.00;;;;;;5040467;28;20038;-68
2023/06/03 10:16:11;;;;;;;0.85;0.70;;;28.60;20.90;;;;;;5011415;28;20041;-69
2023/06/03 10:18:39;;;;;;;1.25;0.65;;;27.70;20.20;;;;;;5044803;28;20041;-71
2023/06/03 10:21:13;;;;;;;4.00;0.80;;;27.70;20.70;;;;;;5047281;28;20041;-67
2023/06/03 10:23:41;;;;;;;1.83;0.60;;;28.10;20.20;;;;;;5029218;28;20056;-67
2023/06/03 10:26:07;;;;;;;4.20;1.30;;;28.40;20.40;;;;;;5051345;28;20037;-67
2023/06/03 10:28:33;;;;;;;5.35;0.70;;;28.70;20.10;;;;;;5049364;28;20040;-66
2023/06/03 10:31:00;;;;;;;0.75;0.57;;;28.60;19.80;;;;;;5051990;28;20127;-70
2023/06/03 10:33:28;;;;;;;1.17;0.55;;;28.50;19.90;;;;;;5028693;28;20632;-67
2023/06/03 10:35:56;;;;;;;2.28;0.70;;;28.80;19.30;;;;;;5051335;28;20041;-68
2023/06/03 10:38:22;;;;;;;3.60;0.85;;;28.80;19.60;;;;;;5030418;28;20059;-68
2023/06/03 10:40:49;;;;;;;1.58;0.80;;;29.10;20.00;;;;;;5051758;28;20480;-68
2023/06/03 10:43:15;;;;;;;1.30;0.70;;;29.50;19.90;;;;;;5050170;28;20045;-67
2023/06/03 10:45:43;;;;;;;1.40;0.75;;;29.80;19.70;;;;;;5053381;28;20160;-66
2023/06/03 10:48:14;;;;;;;1.77;0.98;;;29.10;19.50;;;;;;5031639;28;20059;-68
2023/06/03 10:51:06;;;;;;;0.90;0.80;;;28.50;19.60;;;;;;5052731;28;20063;-67
2023/06/03 10:54:07;;;;;;;2.70;0.80;;;28.30;19.10;;;;;;5048415;28;20087;-67
2023/06/03 10:56:51;;;;;;;1.15;0.57;;;28.10;19.90;;;;;;5006638;28;20535;-67
2023/06/03 10:59:20;;;;;;;1.08;0.60;;;28.20;20.10;;;;;;5030687;28;20114;-68
2023/06/03 11:02:03;;;;;;;2.00;0.70;;;27.20;20.70;;;;;;5032912;28;20136;-65
2023/06/03 11:04:31;;;;;;;1.00;0.70;;;26.10;20.70;;;;;;5045438;28;20197;-67
2023/06/03 11:06:57;;;;;;;2.03;0.60;;;25.10;22.30;;;;;;5049549;28;20124;-66
2023/06/03 11:09:40;;;;;;;1.63;0.60;;;24.30;22.70;;;;;;5048915;28;20052;-66
2023/06/03 11:12:12;;;;;;;1.60;0.70;;;23.80;22.80;;;;;;5049056;28;20033;-68
2023/06/03 11:14:42;;;;;;;2.53;0.70;;;23.10;23.60;;;;;;5051522;28;20033;-66
2023/06/03 11:17:10;;;;;;;5.32;0.70;;;23.10;24.20;;;;;;5046327;28;20041;-69
2023/06/03 11:19:44;;;;;;;3.72;0.90;;;22.80;24.50;;;;;;5032092;28;20042;-69
2023/06/03 11:22:12;;;;;;;7.28;1.23;;;22.40;23.80;;;;;;5030824;28;20069;-67
2023/06/03 11:24:38;;;;;;;12.50;1.00;;;22.10;24.40;;;;;;5028524;28;20038;-67
2023/06/03 11:27:09;;;;;;;1.90;0.50;;;22.10;24.40;;;;;;5013964;28;20057;-67
2023/06/03 11:29:47;;;;;;;0.85;0.60;;;21.70;24.80;;;;;;5047526;28;20075;-66
2023/06/03 11:32:26;;;;;;;3.83;0.70;;;22.00;24.90;;;;;;5049862;28;20205;-68
2023/06/03 11:35:11;;;;;;;2.00;0.60;;;21.80;24.90;;;;;;5034463;28;20045;-65
2023/06/03 11:37:46;;;;;;;1.80;0.60;;;21.80;24.90;;;;;;5047457;28;20147;-67
2023/06/03 11:40:15;;;;;;;1.50;0.55;;;21.80;25.30;;;;;;5050454;28;20372;-69
2023/06/03 11:43:05;;;;;;;2.35;0.73;;;22.10;25.40;;;;;;5049358;28;20189;-66
2023/06/03 11:45:32;;;;;;;2.03;0.85;;;22.30;26.10;;;;;;5032630;28;20353;-67
2023/06/03 11:48:05;;;;;;;0.85;0.50;;;22.50;25.70;;;;;;5049560;28;20056;-66
2023/06/03 11:50:33;;;;;;;2.88;0.70;;;22.60;25.80;;;;;;5051866;28;20091;-67
2023/06/03 11:52:59;;;;;;;0.88;0.68;;;22.20;24.80;;;;;;5030375;28;20640;-67
2023/06/03 11:55:29;;;;;;;1.38;0.68;;;22.20;24.80;;;;;;5052268;28;20084;-66
2023/06/03 11:58:06;;;;;;;0.93;0.63;;;22.20;25.10;;;;;;5050293;28;20040;-65
2023/06/03 12:00:32;;;;;;;1.30;1.00;;;22.30;25.10;;;;;;5050075;28;20072;-65
2023/06/03 12:02:57;;;;;;;1.60;0.63;;;22.60;25.20;;;;;;5047499;28;20114;-67
2023/06/03 12:05:23;;;;;;;2.28;0.73;;;22.80;25.00;;;;;;5049333;28;20044;-65
2023/06/03 12:07:53;;;;;;;2.05;0.60;;;23.10;25.20;;;;;;5048830;28;20159;-68
2023/06/03 12:10:18;;;;;;;5.35;0.73;;;23.10;24.80;;;;;;5048764;28;20048;-67
2023/06/03 12:12:56;;;;;;;1.80;0.82;;;22.90;24.60;;;;;;5048960;28;20334;-65
2023/06/03 12:15:22;;;;;;;2.28;0.60;;;23.30;25.40;;;;;;5030238;28;20038;-68
2023/06/03 12:17:48;;;;;;;2.40;0.70;;;23.90;24.40;;;;;;5028376;28;20875;-67
2023/06/03 12:20:28;;;;;;;1.35;0.85;;;25.20;23.70;;;;;;5045074;28;20033;-68
2023/06/03 12:23:03;;;;;;;1.67;0.60;;;25.60;21.50;;;;;;5046245;28;20170;-69
2023/06/03 12:25:30;;;;;;;2.20;0.77;;;26.60;21.40;;;;;;5048589;28;20080;-66
2023/06/03 12:27:56;;;;;;;2.05;0.85;;;27.20;21.40;;;;;;5050953;28;20036;-66
2023/06/03 12:30:35;;;;;;;1.55;0.60;;;27.30;20.70;;;;;;5049390;28;20116;-67
2023/06/03 12:33:00;;;;;;;1.77;0.60;;;27.80;20.50;;;;;;5048424;28;20620;-68
2023/06/03 12:35:28;;;;;;;2.03;0.70;;;29.00;20.50;;;;;;5050470;28;20155;-66
2023/06/03 12:38:07;;;;;;;1.75;0.60;;;28.80;19.80;;;;;;5046895;28;20075;-66
2023/06/03 12:40:35;;;;;;;2.00;0.90;;;30.50;18.70;;;;;;5051285;28;20436;-66
2023/06/03 12:43:02;;;;;;;3.10;0.80;;;31.40;18.70;;;;;;5047716;28;20045;-66
2023/06/03 12:45:28;;;;;;;1.38;0.60;;;32.70;18.30;;;;;;5050939;28;20098;-65
2023/06/03 12:47:55;;;;;;;2.28;0.52;;;33.30;18.10;;;;;;5047329;28;20054;-68
2023/06/03 12:50:23;;;;;;;1.42;0.68;;;34.50;18.50;;;;;;5048760;28;20375;-67
2023/06/03 12:52:49;;;;;;;1.88;0.80;;;34.90;17.10;;;;;;5046321;28;20041;-65
2023/06/03 12:55:17;;;;;;;1.77;0.65;;;34.40;16.80;;;;;;5049147;28;20136;-66
2023/06/03 12:57:44;;;;;;;0.98;0.77;;;33.90;16.90;;;;;;5048029;28;20049;-66
2023/06/03 13:00:12;;;;;;;2.33;0.70;;;34.70;16.90;;;;;;5049360;28;20500;-66
2023/06/03 13:02:39;;;;;;;3.22;0.75;;;33.70;16.50;;;;;;5030488;28;20044;-65